Time;durP1;ratioP1;P1;durP2;ratioP2;P2;SDS_P1;SDS_P2;PMS_P1;PMS_P2;Temp;Humidity;BMP_temperature;BMP_pressure;BME280_temperature;BME280_humidity;BME280_pressure;Samples;Min_cycle;Max_cycle;Signal;HPM_P1;HPM_P2
2024/01/09 00:02:19;;;;;;;3.15;2.65;;;-5.80;99.90;;;;;;4991362;28;20580;-76
2024/01/09 00:04:47;;;;;;;3.55;3.28;;;-5.80;99.90;;;;;;4991615;28;20218;-76
2024/01/09 00:07:14;;;;;;;4.50;2.25;;;-5.70;99.90;;;;;;4990866;28;20206;-76
2024/01/09 00:09:40;;;;;;;13.02;4.25;;;-5.70;99.90;;;;;;4991188;28;20195;-76
2024/01/09 00:12:09;;;;;;;4.50;2.33;;;-5.70;99.90;;;;;;4990764;28;20227;-77
2024/01/09 00:14:35;;;;;;;3.65;3.33;;;-5.70;99.90;;;;;;4991435;28;20230;-76
2024/01/09 00:17:02;;;;;;;2.25;2.15;;;-5.80;99.90;;;;;;4990659;28;20203;-76
2024/01/09 00:19:29;;;;;;;7.85;3.35;;;-5.80;99.90;;;;;;4991293;28;20223;-76
2024/01/09 00:21:57;;;;;;;3.80;2.33;;;-5.80;99.90;;;;;;4991521;28;20231;-76
2024/01/09 00:24:24;;;;;;;5.60;3.58;;;-5.90;99.90;;;;;;4994670;28;20297;-76
2024/01/09 00:26:51;;;;;;;7.38;2.55;;;-5.90;99.90;;;;;;4994890;28;20219;-76
2024/01/09 00:29:17;;;;;;;2.85;1.50;;;-5.90;99.90;;;;;;4993968;28;20592;-76
2024/01/09 00:31:45;;;;;;;2.42;1.50;;;-5.90;99.90;;;;;;4994213;28;20227;-76
2024/01/09 00:34:11;;;;;;;4.78;2.75;;;-5.90;99.90;;;;;;4994463;28;20207;-76
2024/01/09 00:36:43;;;;;;;6.60;2.78;;;-5.90;99.90;;;;;;4989330;28;20199;-76
2024/01/09 00:39:11;;;;;;;2.22;2.03;;;-5.90;99.90;;;;;;4994075;28;20235;-76
2024/01/09 00:41:38;;;;;;;2.95;2.75;;;-6.00;99.90;;;;;;4994191;28;20238;-74
2024/01/09 00:44:05;;;;;;;3.80;2.75;;;-6.00;99.90;;;;;;4994274;28;20668;-76
2024/01/09 00:46:31;;;;;;;3.30;3.00;;;-6.00;99.90;;;;;;4994578;28;20212;-76
2024/01/09 00:48:58;;;;;;;4.35;2.97;;;-6.00;99.90;;;;;;4993924;28;20207;-76
2024/01/09 00:51:25;;;;;;;6.03;3.72;;;-6.00;99.90;;;;;;4994500;28;20227;-76
2024/01/09 00:53:54;;;;;;;2.50;1.50;;;-5.90;99.90;;;;;;4994280;28;20230;-76
2024/01/09 00:56:22;;;;;;;3.17;2.00;;;-6.00;99.90;;;;;;4991806;28;20254;-76
2024/01/09 00:58:49;;;;;;;4.35;3.10;;;-6.00;99.90;;;;;;4994295;28;20211;-76
2024/01/09 01:01:16;;;;;;;4.30;3.80;;;-6.00;99.90;;;;;;4994078;28;20679;-77
2024/01/09 01:03:43;;;;;;;2.53;2.15;;;-6.00;99.90;;;;;;4994124;28;20215;-76
2024/01/09 01:06:10;;;;;;;2.85;2.65;;;-6.00;99.90;;;;;;4993775;28;20215;-76
2024/01/09 01:08:37;;;;;;;4.97;4.45;;;-6.00;99.90;;;;;;4993550;28;20703;-75
2024/01/09 01:11:04;;;;;;;2.15;1.95;;;-6.00;99.90;;;;;;4993536;28;20258;-76
2024/01/09 01:13:32;;;;;;;1.65;1.23;;;-6.10;99.90;;;;;;4993635;28;20203;-76
2024/01/09 01:15:59;;;;;;;2.20;1.98;;;-6.10;99.90;;;;;;4993071;28;20207;-77
2024/01/09 01:18:26;;;;;;;7.70;3.30;;;-6.10;99.90;;;;;;4993306;28;20206;-77
2024/01/09 01:20:52;;;;;;;4.55;3.10;;;-6.10;99.90;;;;;;4993882;28;20326;-76
2024/01/09 01:23:19;;;;;;;4.43;2.40;;;-6.10;99.90;;;;;;4993084;28;20290;-76
2024/01/09 01:25:46;;;;;;;4.05;1.80;;;-6.10;99.90;;;;;;4993626;28;20212;-76
2024/01/09 01:28:13;;;;;;;2.15;2.05;;;-6.10;99.90;;;;;;4993148;28;20207;-76
2024/01/09 01:30:41;;;;;;;5.70;2.33;;;-6.10;99.90;;;;;;4987602;28;20226;-76
2024/01/09 01:33:07;;;;;;;2.42;2.33;;;-6.20;99.90;;;;;;4991798;28;20230;-76
2024/01/09 01:35:34;;;;;;;6.60;4.50;;;-6.20;99.90;;;;;;4993331;28;20238;-75
2024/01/09 01:38:01;;;;;;;3.83;3.15;;;-6.20;99.90;;;;;;4993227;28;20615;-76
2024/01/09 01:40:27;;;;;;;5.05;4.22;;;-6.20;99.90;;;;;;4992942;28;20227;-76
2024/01/09 01:42:57;;;;;;;2.90;1.85;;;-6.20;99.90;;;;;;4993387;28;20227;-76
2024/01/09 01:45:25;;;;;;;4.45;4.13;;;-6.30;99.90;;;;;;4992832;28;20319;-76
2024/01/09 01:47:53;;;;;;;2.63;1.70;;;-6.30;99.90;;;;;;4993766;28;20211;-76
2024/01/09 01:50:21;;;;;;;3.67;2.10;;;-6.30;99.90;;;;;;4992794;28;20207;-76
2024/01/09 01:52:49;;;;;;;3.60;3.30;;;-6.30;99.90;;;;;;4993058;28;20723;-76
2024/01/09 01:55:18;;;;;;;3.33;3.08;;;-6.30;99.90;;;;;;4992642;28;20211;-76
2024/01/09 01:57:46;;;;;;;4.32;2.95;;;-6.30;99.90;;;;;;4993049;28;20211;-75
2024/01/09 02:00:14;;;;;;;5.00;2.22;;;-6.30;99.90;;;;;;4992369;28;20227;-76
2024/01/09 02:02:42;;;;;;;3.80;2.40;;;-6.30;99.90;;;;;;4988079;28;20246;-76
2024/01/09 02:05:11;;;;;;;4.82;4.40;;;-6.30;99.90;;;;;;4996680;28;20207;-76
2024/01/09 02:07:39;;;;;;;3.92;2.22;;;-6.20;99.90;;;;;;4995740;28;20294;-75
2024/01/09 02:10:07;;;;;;;3.65;3.35;;;-6.30;99.90;;;;;;4995531;28;20199;-76
2024/01/09 02:12:34;;;;;;;4.75;4.40;;;-6.30;99.90;;;;;;4995897;28;20612;-76
2024/01/09 02:15:00;;;;;;;1.77;1.67;;;-6.30;99.90;;;;;;4995328;28;20214;-75
2024/01/09 02:17:27;;;;;;;2.33;2.03;;;-6.30;99.90;;;;;;4996340;28;20225;-76
2024/01/09 02:19:54;;;;;;;2.97;2.08;;;-6.30;99.90;;;;;;4994984;28;20739;-75
2024/01/09 02:22:23;;;;;;;2.88;2.42;;;-6.30;99.90;;;;;;4995712;28;20230;-76
2024/01/09 02:24:49;;;;;;;1.98;1.88;;;-6.30;99.90;;;;;;4995377;28;20216;-76
2024/01/09 02:27:24;;;;;;;3.97;3.65;;;-6.30;99.90;;;;;;4995983;28;20580;-76
2024/01/09 02:29:53;;;;;;;6.72;5.13;;;-6.30;99.90;;;;;;4994727;28;20203;-76
2024/01/09 02:32:21;;;;;;;2.25;2.05;;;-6.30;99.90;;;;;;4995418;28;20231;-76
2024/01/09 02:34:49;;;;;;;3.95;3.65;;;-6.30;99.90;;;;;;4995011;28;20673;-76
2024/01/09 02:37:16;;;;;;;5.68;1.27;;;-6.40;99.90;;;;;;4995125;28;20207;-76
2024/01/09 02:39:42;;;;;;;1.85;1.75;;;-6.40;99.90;;;;;;4994516;28;20227;-76
2024/01/09 02:42:09;;;;;;;3.22;2.97;;;-6.40;99.90;;;;;;4994346;28;20235;-76
2024/01/09 02:44:36;;;;;;;2.50;2.30;;;-6.40;99.90;;;;;;4994272;28;20199;-76
2024/01/09 02:47:04;;;;;;;3.03;2.08;;;-6.40;99.90;;;;;;4994228;28;20214;-76
2024/01/09 02:49:31;;;;;;;3.60;3.28;;;-6.50;99.90;;;;;;4992916;28;20217;-76
2024/01/09 02:51:58;;;;;;;4.25;3.05;;;-6.40;99.90;;;;;;4993928;28;20227;-76
2024/01/09 02:54:25;;;;;;;3.50;1.73;;;-6.40;99.90;;;;;;4994586;28;20212;-76
2024/01/09 02:56:52;;;;;;;2.35;2.08;;;-6.40;99.90;;;;;;4994195;28;20213;-77
2024/01/09 02:59:18;;;;;;;2.38;2.28;;;-6.50;99.90;;;;;;4994186;28;20234;-76
2024/01/09 03:01:45;;;;;;;2.67;2.28;;;-6.50;99.90;;;;;;4993481;28;20227;-76
2024/01/09 03:04:13;;;;;;;3.08;2.78;;;-6.50;99.90;;;;;;4991804;28;20211;-76
2024/01/09 03:06:40;;;;;;;4.82;2.75;;;-6.50;99.90;;;;;;4985008;28;20290;-76
2024/01/09 03:09:07;;;;;;;2.03;1.90;;;-6.50;99.90;;;;;;4991826;28;20219;-77
2024/01/09 03:11:33;;;;;;;5.90;3.75;;;-6.60;99.90;;;;;;4991077;28;20310;-76
2024/01/09 03:14:00;;;;;;;4.40;4.10;;;-6.60;99.90;;;;;;4991700;28;20214;-76
2024/01/09 03:16:27;;;;;;;5.63;2.53;;;-6.60;99.90;;;;;;4991604;28;20203;-76
2024/01/09 03:18:53;;;;;;;2.72;2.53;;;-6.50;99.90;;;;;;4991766;28;20218;-75
2024/01/09 03:21:21;;;;;;;1.83;1.70;;;-6.50;99.90;;;;;;4991353;28;20261;-76
2024/01/09 03:23:48;;;;;;;4.00;2.10;;;-6.50;99.90;;;;;;4991449;28;20680;-76
2024/01/09 03:26:15;;;;;;;3.22;2.97;;;-6.50;99.90;;;;;;4991880;28;20203;-76
2024/01/09 03:28:42;;;;;;;8.50;2.63;;;-6.50;99.90;;;;;;4991490;28;20563;-75
2024/01/09 03:31:09;;;;;;;1.90;1.80;;;-6.50;99.90;;;;;;4991647;28;20227;-76
2024/01/09 03:33:35;;;;;;;6.53;3.80;;;-6.50;99.90;;;;;;4990545;28;20301;-77
2024/01/09 03:36:06;;;;;;;1.20;1.10;;;-6.50;99.90;;;;;;4991700;28;20211;-76
2024/01/09 03:38:34;;;;;;;6.25;3.65;;;-6.60;99.90;;;;;;4991110;28;20207;-76
2024/01/09 03:41:02;;;;;;;5.30;4.85;;;-6.60;99.90;;;;;;4991567;28;20227;-76
2024/01/09 03:43:29;;;;;;;2.15;1.95;;;-6.60;99.90;;;;;;4991065;28;20207;-76
2024/01/09 03:45:57;;;;;;;4.05;2.70;;;-6.60;99.90;;;;;;4991735;28;20207;-76
2024/01/09 03:48:23;;;;;;;5.20;2.42;;;-6.60;99.90;;;;;;4991115;28;20318;-76
2024/01/09 03:50:50;;;;;;;3.53;3.22;;;-6.60;99.90;;;;;;4991591;28;20215;-77
2024/01/09 03:53:17;;;;;;;1.70;1.60;;;-6.60;99.90;;;;;;4990780;28;20217;-76
2024/01/09 03:55:45;;;;;;;4.88;3.33;;;-6.60;99.90;;;;;;4991545;28;20691;-77
2024/01/09 03:58:12;;;;;;;6.07;4.82;;;-6.60;99.90;;;;;;4991548;28;20219;-77
2024/01/09 04:00:39;;;;;;;4.07;3.67;;;-6.60;99.90;;;;;;4994261;28;20223;-77
2024/01/09 04:03:06;;;;;;;4.18;2.90;;;-6.50;99.90;;;;;;5017129;28;20229;-76
2024/01/09 04:05:33;;;;;;;3.47;3.13;;;-6.50;99.90;;;;;;5024219;28;20579;-77
2024/01/09 04:08:00;;;;;;;3.60;2.78;;;-6.50;99.90;;;;;;5023475;28;20702;-76
2024/01/09 04:10:27;;;;;;;3.33;1.90;;;-6.50;99.90;;;;;;5020902;28;20208;-76
2024/01/09 04:12:55;;;;;;;1.98;1.88;;;-6.50;99.90;;;;;;5030777;28;20229;-76
2024/01/09 04:15:21;;;;;;;1.63;1.52;;;-6.50;99.90;;;;;;5030973;28;20202;-76
2024/01/09 04:17:48;;;;;;;3.05;2.20;;;-6.50;99.90;;;;;;5024353;28;20210;-76
2024/01/09 04:20:15;;;;;;;3.70;2.92;;;-6.50;99.90;;;;;;5030908;28;20300;-76
2024/01/09 04:22:41;;;;;;;1.88;1.75;;;-6.50;99.90;;;;;;5023535;28;20219;-76
2024/01/09 04:25:09;;;;;;;9.32;2.00;;;-6.50;99.90;;;;;;5024416;28;20709;-76
2024/01/09 04:27:35;;;;;;;4.20;3.22;;;-6.50;99.90;;;;;;5024788;28;20211;-75
2024/01/09 04:30:04;;;;;;;3.67;3.17;;;-6.50;99.90;;;;;;5022087;28;20213;-76
2024/01/09 04:32:31;;;;;;;6.38;2.80;;;-6.50;99.90;;;;;;5017889;28;20226;-76
2024/01/09 04:34:58;;;;;;;2.75;2.45;;;-6.50;99.90;;;;;;5021729;28;20294;-77
2024/01/09 04:37:25;;;;;;;10.15;2.92;;;-6.50;99.90;;;;;;5021883;28;20242;-78
2024/01/09 04:39:52;;;;;;;5.63;2.53;;;-6.60;99.90;;;;;;5023517;28;20571;-75
2024/01/09 04:42:18;;;;;;;2.63;2.40;;;-6.60;99.90;;;;;;5029549;28;20236;-76
2024/01/09 04:44:45;;;;;;;1.95;1.85;;;-6.50;99.90;;;;;;5027080;28;20211;-76
2024/01/09 04:47:15;;;;;;;5.00;2.70;;;-6.60;99.90;;;;;;5022932;28;20333;-76
2024/01/09 04:49:42;;;;;;;6.35;3.35;;;-6.50;99.90;;;;;;5020156;28;20214;-76
2024/01/09 04:52:09;;;;;;;3.25;2.90;;;-6.50;99.90;;;;;;5013795;28;20230;-75
2024/01/09 04:54:36;;;;;;;2.83;2.08;;;-6.50;99.90;;;;;;5012953;28;20211;-76
2024/01/09 04:57:03;;;;;;;2.85;1.83;;;-6.50;99.90;;;;;;5013586;28;20207;-74
2024/01/09 04:59:30;;;;;;;4.03;3.10;;;-6.60;99.90;;;;;;5013264;28;20210;-75
2024/01/09 05:01:59;;;;;;;2.13;2.03;;;-6.60;99.90;;;;;;5012078;28;20296;-76
2024/01/09 05:04:27;;;;;;;5.63;2.42;;;-6.50;99.90;;;;;;5011029;28;20214;-75
2024/01/09 05:06:53;;;;;;;2.63;1.73;;;-6.50;99.90;;;;;;5012333;28;20210;-75
2024/01/09 05:09:20;;;;;;;8.65;5.38;;;-6.50;99.90;;;;;;5010634;28;20210;-76
2024/01/09 05:11:47;;;;;;;5.13;4.10;;;-6.50;99.90;;;;;;5012564;28;20720;-75
2024/01/09 05:14:14;;;;;;;2.20;2.00;;;-6.50;99.90;;;;;;5013334;28;20202;-78
2024/01/09 05:16:40;;;;;;;2.85;2.63;;;-6.50;99.90;;;;;;5010403;28;20217;-74
2024/01/09 05:19:07;;;;;;;2.45;2.25;;;-6.60;99.90;;;;;;5011467;28;20213;-75
2024/01/09 05:21:35;;;;;;;5.35;3.42;;;-6.50;99.90;;;;;;5011199;28;20246;-75
2024/01/09 05:24:02;;;;;;;3.38;3.08;;;-6.50;99.90;;;;;;5011209;28;20214;-74
2024/01/09 05:26:29;;;;;;;2.20;2.00;;;-6.50;99.90;;;;;;5010117;28;20206;-75
2024/01/09 05:28:56;;;;;;;1.75;1.65;;;-6.50;99.90;;;;;;5011219;28;20207;-75
2024/01/09 05:31:24;;;;;;;7.43;3.67;;;-6.50;99.90;;;;;;5012300;28;20227;-81
2024/01/09 05:33:51;;;;;;;3.65;1.88;;;-6.50;99.90;;;;;;5017133;28;20202;-80
2024/01/09 05:36:22;;;;;;;2.35;2.10;;;-6.60;99.90;;;;;;5018456;28;20202;-81
2024/01/09 05:38:50;;;;;;;1.40;1.30;;;-6.60;99.90;;;;;;5013980;28;20403;-80
2024/01/09 05:41:20;;;;;;;9.05;3.40;;;-6.60;99.90;;;;;;5023303;28;20232;-79
2024/01/09 05:43:47;;;;;;;8.70;4.13;;;-6.60;99.90;;;;;;5017437;28;20198;-80
2024/01/09 05:46:13;;;;;;;1.85;1.75;;;-6.60;99.90;;;;;;5006859;28;20271;-81
2024/01/09 05:48:40;;;;;;;9.27;2.53;;;-6.60;99.90;;;;;;5016471;28;20214;-82
2024/01/09 05:51:09;;;;;;;1.85;1.60;;;-6.60;99.90;;;;;;5014669;28;20297;-82
2024/01/09 05:53:35;;;;;;;2.80;2.58;;;-6.60;99.90;;;;;;5021110;28;20230;-81
2024/01/09 05:56:04;;;;;;;3.25;2.47;;;-6.60;99.90;;;;;;5026790;28;20213;-82
2024/01/09 05:58:31;;;;;;;4.40;2.92;;;-6.60;99.90;;;;;;5016439;28;20198;-84
2024/01/09 06:00:58;;;;;;;2.20;2.00;;;-6.60;99.90;;;;;;5009938;28;20229;-80
2024/01/09 06:03:24;;;;;;;4.05;3.65;;;-6.60;99.90;;;;;;5004061;28;20211;-78
2024/01/09 06:05:51;;;;;;;3.92;1.98;;;-6.70;99.90;;;;;;5004320;28;20206;-82
2024/01/09 06:08:18;;;;;;;3.90;2.35;;;-6.60;99.90;;;;;;5000554;28;20233;-81
2024/01/09 06:10:45;;;;;;;2.35;2.15;;;-6.70;99.90;;;;;;5006468;28;20214;-80
2024/01/09 06:13:13;;;;;;;1.27;1.20;;;-6.70;99.90;;;;;;5007408;28;20203;-81
2024/01/09 06:15:40;;;;;;;2.10;1.90;;;-6.70;99.90;;;;;;5019993;28;20204;-80
2024/01/09 06:18:07;;;;;;;3.72;3.42;;;-6.70;99.90;;;;;;5021947;28;20656;-81
2024/01/09 06:20:34;;;;;;;1.88;1.77;;;-6.70;99.90;;;;;;5015768;28;20215;-81
2024/01/09 06:23:00;;;;;;;1.35;1.25;;;-6.70;99.90;;;;;;5015502;28;20236;-80
2024/01/09 06:25:27;;;;;;;7.25;3.05;;;-6.70;99.90;;;;;;5007656;28;20206;-80
2024/01/09 06:27:54;;;;;;;4.88;4.13;;;-6.70;99.90;;;;;;5010145;28;20203;-80
2024/01/09 06:30:22;;;;;;;1.52;1.42;;;-6.70;99.90;;;;;;5005682;28;20615;-79
2024/01/09 06:32:50;;;;;;;2.95;2.75;;;-6.70;99.90;;;;;;5008843;28;20305;-81
2024/01/09 06:35:17;;;;;;;1.85;1.70;;;-6.70;99.90;;;;;;5000540;28;20203;-81
2024/01/09 06:37:44;;;;;;;1.40;1.30;;;-6.70;99.90;;;;;;5004159;28;20214;-82
2024/01/09 06:40:12;;;;;;;2.63;2.47;;;-6.60;99.90;;;;;;5012848;28;20256;-79
2024/01/09 06:42:40;;;;;;;2.53;1.92;;;-6.70;99.90;;;;;;5005884;28;20219;-79
2024/01/09 06:45:07;;;;;;;2.95;2.58;;;-6.70;99.90;;;;;;4998087;28;20211;-79
2024/01/09 06:47:36;;;;;;;5.68;2.95;;;-6.70;99.90;;;;;;4997400;28;20908;-81
2024/01/09 06:50:03;;;;;;;2.47;2.28;;;-6.70;99.90;;;;;;5003468;28;20210;-80
2024/01/09 06:52:31;;;;;;;3.25;2.25;;;-6.70;99.90;;;;;;5000278;28;20477;-81
2024/01/09 06:54:58;;;;;;;1.45;1.35;;;-6.70;99.90;;;;;;4999746;28;20234;-82
2024/01/09 06:57:25;;;;;;;2.10;2.00;;;-6.70;99.90;;;;;;5001214;28;20226;-79
2024/01/09 06:59:52;;;;;;;2.10;1.90;;;-6.70;99.90;;;;;;4999434;28;20265;-81
2024/01/09 07:02:20;;;;;;;4.65;2.58;;;-6.70;99.90;;;;;;5003865;28;20305;-80
2024/01/09 07:04:49;;;;;;;2.28;1.90;;;-6.70;99.90;;;;;;5012623;28;20746;-80
2024/01/09 07:07:15;;;;;;;3.42;2.13;;;-6.70;99.90;;;;;;5013221;28;20229;-80
2024/01/09 07:09:42;;;;;;;2.70;2.50;;;-6.70;99.90;;;;;;5010483;28;20215;-81
2024/01/09 07:12:10;;;;;;;3.20;2.88;;;-6.70;99.90;;;;;;5014366;28;20245;-83
2024/01/09 07:14:37;;;;;;;2.55;2.40;;;-6.70;99.90;;;;;;5008657;28;20214;-81
2024/01/09 07:17:03;;;;;;;3.80;2.42;;;-6.70;99.90;;;;;;5010934;28;20211;-84
2024/01/09 07:19:30;;;;;;;3.47;3.08;;;-6.60;99.90;;;;;;5011852;28;20206;-82
2024/01/09 07:21:59;;;;;;;3.88;3.58;;;-6.60;99.90;;;;;;5013468;28;20241;-82
2024/01/09 07:24:26;;;;;;;2.70;1.55;;;-6.60;99.90;;;;;;5011825;28;20202;-82
2024/01/09 07:26:53;;;;;;;2.13;1.98;;;-6.60;99.90;;;;;;5012201;28;20211;-81
2024/01/09 07:29:19;;;;;;;3.72;1.30;;;-6.60;99.90;;;;;;5011112;28;20203;-81
2024/01/09 07:31:47;;;;;;;2.58;2.45;;;-6.60;99.90;;;;;;5011333;28;20770;-81
2024/01/09 07:34:14;;;;;;;2.42;2.22;;;-6.60;99.90;;;;;;5014734;28;20233;-82
2024/01/09 07:36:42;;;;;;;5.57;2.20;;;-6.50;99.90;;;;;;5009265;28;20660;-82
2024/01/09 07:39:12;;;;;;;5.70;2.25;;;-6.50;99.90;;;;;;5014886;28;20210;-80
2024/01/09 07:41:39;;;;;;;2.85;1.67;;;-6.40;99.90;;;;;;5013342;28;20242;-82
2024/01/09 07:44:06;;;;;;;1.48;1.38;;;-6.40;99.90;;;;;;5015140;28;20218;-78
2024/01/09 07:46:33;;;;;;;2.28;2.17;;;-6.40;99.90;;;;;;5007157;28;20355;-77
2024/01/09 07:49:00;;;;;;;3.30;3.10;;;-6.30;99.90;;;;;;5008879;28;20212;-78
2024/01/09 07:51:27;;;;;;;1.75;1.48;;;-6.30;99.90;;;;;;5023398;28;20286;-77
2024/01/09 07:53:54;;;;;;;2.47;2.22;;;-6.30;99.90;;;;;;5023463;28;20234;-79
2024/01/09 07:56:22;;;;;;;3.05;2.80;;;-6.30;99.90;;;;;;5027971;28;20266;-79
2024/01/09 07:58:49;;;;;;;2.35;2.17;;;-6.20;99.90;;;;;;5027537;28;20193;-79
2024/01/09 08:01:17;;;;;;;2.97;2.78;;;-6.10;99.90;;;;;;5021804;28;20668;-77
2024/01/09 08:03:44;;;;;;;2.63;2.15;;;-6.00;99.90;;;;;;5017252;28;20211;-79
2024/01/09 08:06:13;;;;;;;2.13;1.92;;;-5.90;99.90;;;;;;5012090;28;20210;-79
2024/01/09 08:08:40;;;;;;;8.68;3.78;;;-5.80;99.90;;;;;;5005310;28;20211;-80
2024/01/09 08:11:07;;;;;;;4.88;2.03;;;-5.70;99.90;;;;;;5012663;28;20232;-79
2024/01/09 08:13:35;;;;;;;7.80;2.78;;;-5.50;99.90;;;;;;5010274;28;20225;-80
2024/01/09 08:16:02;;;;;;;3.40;2.17;;;-5.40;99.90;;;;;;5014333;28;20554;-86
2024/01/09 08:18:29;;;;;;;1.10;1.00;;;-5.20;99.90;;;;;;5011411;28;20207;-87
2024/01/09 08:20:57;;;;;;;6.55;3.40;;;-5.00;99.90;;;;;;5010029;28;20294;-87
2024/01/09 08:23:24;;;;;;;3.45;3.15;;;-4.70;99.90;;;;;;5010289;28;20241;-85
2024/01/09 08:25:51;;;;;;;6.25;2.13;;;-4.30;99.90;;;;;;5009627;28;20207;-82
2024/01/09 08:28:18;;;;;;;3.42;2.08;;;-3.80;99.90;;;;;;5012753;28;20210;-81
2024/01/09 08:30:47;;;;;;;4.95;2.97;;;-3.10;99.90;;;;;;5009113;28;20222;-80
2024/01/09 08:33:14;;;;;;;6.22;4.40;;;-2.70;99.90;;;;;;5012283;28;20202;-79
2024/01/09 08:35:41;;;;;;;4.80;3.55;;;-2.30;99.90;;;;;;5008857;28;20211;-82
2024/01/09 08:38:07;;;;;;;6.93;3.20;;;-2.20;99.90;;;;;;5012493;28;20573;-81
2024/01/09 08:40:34;;;;;;;7.25;3.15;;;-1.90;99.90;;;;;;5012843;28;20226;-83
2024/01/09 08:43:01;;;;;;;8.35;3.92;;;-1.70;99.90;;;;;;5009495;28;20227;-82
2024/01/09 08:45:27;;;;;;;5.68;3.38;;;-1.60;99.90;;;;;;5012212;28;20210;-83
2024/01/09 08:47:55;;;;;;;6.22;3.78;;;-1.70;99.90;;;;;;5010472;28;20218;-81
2024/01/09 08:50:22;;;;;;;7.95;4.78;;;-1.70;99.90;;;;;;5010954;28;20202;-82
2024/01/09 08:52:49;;;;;;;6.35;4.22;;;-1.80;99.90;;;;;;5008910;28;20227;-82
2024/01/09 08:55:16;;;;;;;6.75;4.70;;;-1.80;99.90;;;;;;5010369;28;20202;-83
2024/01/09 08:57:43;;;;;;;10.13;4.70;;;-1.80;99.90;;;;;;5007458;28;20238;-83
2024/01/09 09:00:10;;;;;;;7.80;4.68;;;-1.80;99.90;;;;;;5010461;28;20202;-80
2024/01/09 09:02:37;;;;;;;7.22;4.47;;;-1.60;99.90;;;;;;5008277;28;20598;-78
2024/01/09 09:05:06;;;;;;;4.80;3.80;;;-1.30;99.90;;;;;;5009306;28;20205;-79
2024/01/09 09:07:33;;;;;;;6.65;4.65;;;-1.00;99.90;;;;;;5005972;28;20202;-78
2024/01/09 09:10:00;;;;;;;10.43;4.95;;;-0.60;99.90;;;;;;5006313;28;20203;-79
2024/01/09 09:12:28;;;;;;;5.95;3.97;;;-0.50;99.90;;;;;;5008110;28;20222;-78
2024/01/09 09:14:55;;;;;;;4.78;4.30;;;-0.70;99.90;;;;;;5005532;28;20203;-78
2024/01/09 09:17:21;;;;;;;7.25;3.78;;;-0.80;99.90;;;;;;5011219;28;20207;-82
2024/01/09 09:19:48;;;;;;;5.63;3.70;;;-0.90;99.90;;;;;;5005546;28;20595;-82
2024/01/09 09:22:16;;;;;;;6.63;3.80;;;-0.90;99.90;;;;;;5007747;28;20222;-78
2024/01/09 09:24:44;;;;;;;4.88;3.78;;;-1.00;99.90;;;;;;5003982;28;20579;-79
2024/01/09 09:27:11;;;;;;;5.60;4.30;;;-0.80;99.90;;;;;;5004512;28;20222;-79
2024/01/09 09:29:37;;;;;;;9.25;4.93;;;-0.10;99.90;;;;;;5012343;28;20202;-81
2024/01/09 09:32:05;;;;;;;6.95;4.68;;;0.70;99.60;;;;;;5008659;28;20233;-80
2024/01/09 09:34:32;;;;;;;10.45;5.57;;;1.10;99.20;;;;;;5009323;28;20214;-81
2024/01/09 09:36:59;;;;;;;8.70;6.43;;;2.20;97.90;;;;;;5015894;28;20289;-83
2024/01/09 09:39:27;;;;;;;7.43;5.47;;;3.30;96.80;;;;;;5008206;28;20293;-85
2024/01/09 09:41:57;;;;;;;7.80;4.80;;;5.30;94.60;;;;;;5001079;28;20690;-85
2024/01/09 09:44:25;;;;;;;9.13;5.95;;;6.50;92.40;;;;;;4993720;28;20209;-86
2024/01/09 09:46:52;;;;;;;7.18;5.18;;;7.90;90.70;;;;;;5005648;28;20641;-87
2024/01/09 09:49:22;;;;;;;12.27;6.10;;;9.10;87.80;;;;;;5005963;28;20210;-81
2024/01/09 09:51:50;;;;;;;9.07;6.55;;;9.00;84.30;;;;;;5003857;28;20246;-82
2024/01/09 09:54:17;;;;;;;10.85;7.00;;;8.70;82.90;;;;;;5006977;28;20700;-82
2024/01/09 09:56:47;;;;;;;8.20;5.60;;;8.80;83.30;;;;;;5001732;28;20214;-81
2024/01/09 09:59:15;;;;;;;13.18;6.18;;;9.50;82.60;;;;;;5007307;28;20234;-80
2024/01/09 10:01:44;;;;;;;9.45;5.70;;;9.60;80.00;;;;;;5002929;28;20275;-79
2024/01/09 10:04:29;;;;;;;7.80;5.78;;;9.90;79.40;;;;;;5005981;28;20204;-79
2024/01/09 10:06:57;;;;;;;10.25;6.95;;;10.10;76.70;;;;;;5001152;28;20216;-78
2024/01/09 10:09:28;;;;;;;9.60;5.97;;;8.80;77.20;;;;;;5010607;28;20213;-79
2024/01/09 10:11:56;;;;;;;6.60;5.90;;;8.90;79.50;;;;;;5010497;28;20793;-79
2024/01/09 10:14:23;;;;;;;8.70;6.28;;;9.20;77.60;;;;;;5005460;28;20215;-80
2024/01/09 10:17:05;;;;;;;7.00;5.97;;;9.30;76.40;;;;;;5086835;27;1602186;-79
2024/01/09 10:19:32;;;;;;;7.47;5.20;;;8.90;75.10;;;;;;5128875;28;20205;-79
2024/01/09 10:21:58;;;;;;;10.18;5.93;;;7.70;75.70;;;;;;5120708;28;20318;-78
2024/01/09 10:24:25;;;;;;;10.63;5.40;;;7.40;77.60;;;;;;5116771;28;20201;-79
2024/01/09 10:26:54;;;;;;;10.20;6.70;;;7.30;78.30;;;;;;5116995;28;20202;-78
2024/01/09 10:29:21;;;;;;;8.32;5.55;;;8.00;77.20;;;;;;5114512;28;20212;-80
2024/01/09 10:31:48;;;;;;;9.45;5.20;;;8.90;77.50;;;;;;5113032;28;20770;-78
2024/01/09 10:34:16;;;;;;;8.48;4.97;;;9.50;76.20;;;;;;5112938;28;20206;-80
2024/01/09 10:39:27;;;;;;;7.32;5.72;;;8.90;74.20;;;;;;5112187;28;20201;-79
2024/01/09 10:42:04;;;;;;;9.60;6.20;;;9.30;76.30;;;;;;5113437;28;20269;-80
2024/01/09 10:44:44;;;;;;;10.35;6.18;;;9.50;74.20;;;;;;5116645;28;20224;-81
2024/01/09 10:47:13;;;;;;;7.00;5.07;;;9.10;73.90;;;;;;5112384;28;20252;-80
2024/01/09 10:49:50;;;;;;;10.75;5.85;;;9.10;74.00;;;;;;5111752;28;20320;-81
2024/01/09 10:52:28;;;;;;;7.65;5.65;;;9.00;72.50;;;;;;5111374;28;20221;-86
2024/01/09 10:55:07;;;;;;;9.95;5.25;;;8.50;73.70;;;;;;5113603;28;20206;-86
2024/01/09 10:57:40;;;;;;;7.47;4.78;;;9.20;73.80;;;;;;5111256;28;20620;-80
2024/01/09 11:00:12;;;;;;;8.85;5.40;;;10.20;70.90;;;;;;5110715;28;20263;-80
2024/01/09 11:02:43;;;;;;;9.00;5.50;;;10.70;70.80;;;;;;5112013;28;20687;-79
2024/01/09 11:08:17;;;;;;;7.10;5.63;;;10.70;70.50;;;;;;5102394;28;20257;-80
2024/01/09 11:16:12;;;;;;;8.77;5.93;;;11.80;68.60;;;;;;5088640;28;20260;-82
2024/01/09 11:18:46;;;;;;;7.07;5.32;;;12.10;68.00;;;;;;5090996;28;20291;-82
2024/01/09 11:21:24;;;;;;;8.95;5.43;;;11.80;67.80;;;;;;5091074;28;20251;-82
2024/01/09 11:23:56;;;;;;;8.88;6.05;;;11.10;67.00;;;;;;5080516;28;20206;-81
2024/01/09 11:26:23;;;;;;;10.10;5.25;;;10.40;68.80;;;;;;5085778;28;20215;-81
2024/01/09 11:28:57;;;;;;;8.85;6.43;;;10.20;67.90;;;;;;5076817;28;20267;-82
2024/01/09 11:31:31;;;;;;;12.82;5.72;;;9.80;69.70;;;;;;5072478;28;20696;-82
2024/01/09 11:34:10;;;;;;;12.63;6.32;;;10.10;68.00;;;;;;5077042;28;20465;-82
2024/01/09 11:37:08;;;;;;;7.32;5.15;;;10.10;69.30;;;;;;5077487;28;20833;-83
2024/01/09 11:39:39;;;;;;;7.50;5.00;;;9.10;69.50;;;;;;5068287;28;20776;-82
2024/01/09 11:42:15;;;;;;;9.60;5.65;;;8.70;71.00;;;;;;5071656;28;20236;-82
2024/01/09 11:45:20;;;;;;;11.00;5.13;;;7.80;70.90;;;;;;5075870;28;20201;-83
2024/01/09 11:47:56;;;;;;;6.13;4.55;;;7.00;73.00;;;;;;5072583;28;20239;-83
2024/01/09 11:50:33;;;;;;;6.50;4.38;;;6.60;72.60;;;;;;5071843;28;20575;-83
2024/01/09 11:53:02;;;;;;;6.45;4.05;;;5.90;75.40;;;;;;5075537;28;20228;-82
2024/01/09 11:55:29;;;;;;;7.65;5.38;;;5.10;75.20;;;;;;5077110;28;20216;-82
2024/01/09 11:57:56;;;;;;;5.68;3.60;;;4.80;77.30;;;;;;5076949;28;20205;-82
2024/01/09 12:00:23;;;;;;;6.60;4.53;;;4.90;77.90;;;;;;5074130;28;20230;-82
2024/01/09 12:02:50;;;;;;;5.95;4.13;;;4.80;77.90;;;;;;5073989;28;20239;-81
2024/01/09 12:05:17;;;;;;;7.30;4.18;;;4.50;77.80;;;;;;5074026;28;20200;-82
2024/01/09 12:07:45;;;;;;;5.97;4.38;;;4.60;79.90;;;;;;5076051;28;20205;-82
2024/01/09 12:10:15;;;;;;;5.45;4.95;;;4.70;77.90;;;;;;5074856;28;20243;-82
2024/01/09 12:12:42;;;;;;;6.82;4.18;;;4.60;78.40;;;;;;5067077;28;20224;-82
2024/01/09 12:15:09;;;;;;;6.70;4.20;;;4.90;80.00;;;;;;5071588;28;20214;-81
2024/01/09 12:17:37;;;;;;;5.82;3.85;;;4.90;79.90;;;;;;5066684;28;20216;-81
2024/01/09 12:20:06;;;;;;;8.10;4.63;;;5.10;79.60;;;;;;5067232;28;20316;-81
2024/01/09 12:22:35;;;;;;;7.72;5.10;;;5.00;79.80;;;;;;5069404;28;20244;-81
2024/01/09 12:25:03;;;;;;;8.60;4.28;;;5.20;80.50;;;;;;5070428;28;20240;-81
2024/01/09 12:27:32;;;;;;;12.38;5.70;;;5.10;78.00;;;;;;5073378;28;20208;-81
2024/01/09 12:29:58;;;;;;;7.15;4.35;;;4.70;78.60;;;;;;5069378;28;20208;-81
2024/01/09 12:32:25;;;;;;;5.15;3.75;;;4.60;79.80;;;;;;5071989;28;20232;-81
2024/01/09 12:34:52;;;;;;;8.30;4.47;;;4.50;81.20;;;;;;5072165;28;20668;-81
2024/01/09 12:37:21;;;;;;;6.63;4.15;;;4.30;82.50;;;;;;5070580;28;20247;-81
2024/01/09 12:39:58;;;;;;;6.60;4.65;;;3.70;81.30;;;;;;5071326;28;20250;-82
2024/01/09 12:42:25;;;;;;;6.78;4.75;;;3.30;82.40;;;;;;5073655;28;20443;-82
2024/01/09 12:44:55;;;;;;;11.98;4.65;;;3.30;83.60;;;;;;5073313;28;20643;-82
2024/01/09 12:47:26;;;;;;;4.15;2.63;;;3.20;83.00;;;;;;5072248;28;20204;-77
2024/01/09 12:49:53;;;;;;;6.45;4.57;;;3.40;83.10;;;;;;5070765;28;20215;-80
2024/01/09 12:52:20;;;;;;;6.07;5.32;;;3.60;83.30;;;;;;5072307;28;20528;-78
2024/01/09 12:54:49;;;;;;;6.75;3.97;;;3.80;82.80;;;;;;5072395;28;20260;-77
2024/01/09 12:57:16;;;;;;;6.10;4.70;;;3.70;82.00;;;;;;5072916;28;20219;-76
2024/01/09 12:59:44;;;;;;;8.30;4.50;;;3.50;82.20;;;;;;5072185;28;20216;-77
2024/01/09 13:02:12;;;;;;;8.77;3.83;;;3.20;82.60;;;;;;5074942;28;20256;-80
2024/01/09 13:04:39;;;;;;;5.15;3.75;;;3.10;84.10;;;;;;5073867;28;20207;-81